createdAt,value
2024-03-01T00:01:12.687Z,2.17
2024-03-01T00:03:57.535Z,2.08
2024-03-01T00:06:42.557Z,1.65
2024-03-01T00:09:27.357Z,1.75
2024-03-01T00:12:12.407Z,2.00
2024-03-01T00:15:02.972Z,1.84
2024-03-01T00:17:47.913Z,2.00
2024-03-01T00:20:32.781Z,1.80
2024-03-01T00:23:18.108Z,1.65
2024-03-01T00:26:03.045Z,3.00
2024-03-01T00:28:48.036Z,1.92
2024-03-01T00:31:32.924Z,2.17
2024-03-01T00:34:17.962Z,2.10
2024-03-01T00:37:02.850Z,2.05
2024-03-01T00:39:47.721Z,1.70
2024-03-01T00:42:32.578Z,2.40
2024-03-01T00:45:17.520Z,2.08
2024-03-01T00:48:07.720Z,2.00
2024-03-01T00:50:52.664Z,2.45
2024-03-01T00:53:37.479Z,2.05
2024-03-01T00:56:23.514Z,2.10
2024-03-01T00:59:08.569Z,1.88
2024-03-01T01:01:53.620Z,2.70
2024-03-01T01:04:39.564Z,2.35
2024-03-01T01:07:25.476Z,2.25
2024-03-01T01:10:11.019Z,3.28
2024-03-01T01:12:56.128Z,2.30
2024-03-01T01:15:41.009Z,2.47
2024-03-01T01:18:25.904Z,2.03
2024-03-01T01:21:10.898Z,2.03
2024-03-01T01:23:55.893Z,2.00
2024-03-01T01:26:40.833Z,2.10
2024-03-01T01:29:25.947Z,2.30
2024-03-01T01:32:11.273Z,2.08
2024-03-01T01:34:56.553Z,2.05
2024-03-01T01:37:41.413Z,2.33
2024-03-01T01:40:31.511Z,2.05
2024-03-01T01:43:17.212Z,1.95
2024-03-01T01:46:07.691Z,2.60
2024-03-01T01:48:53.092Z,2.47
2024-03-01T01:51:38.190Z,2.45
2024-03-01T01:54:24.207Z,2.20
2024-03-01T01:57:09.326Z,2.00
2024-03-01T01:59:54.922Z,2.05
2024-03-01T02:02:41.345Z,1.60
2024-03-01T02:05:26.653Z,2.10
2024-03-01T02:08:11.573Z,1.92
2024-03-01T02:10:56.587Z,1.42
2024-03-01T02:13:41.697Z,1.85
2024-03-01T02:16:27.155Z,2.30
2024-03-01T02:19:19.005Z,1.92
2024-03-01T02:22:08.603Z,2.17
2024-03-01T02:27:38.674Z,1.40
2024-03-01T02:30:23.788Z,1.55
2024-03-01T02:33:09.114Z,1.30
2024-03-01T02:35:54.533Z,1.95
2024-03-01T02:38:39.721Z,1.25
2024-03-01T02:41:25.006Z,1.52
2024-03-01T02:44:10.024Z,1.45
2024-03-01T02:46:54.809Z,1.50
2024-03-01T02:49:40.233Z,1.80
2024-03-01T02:52:25.418Z,1.65
2024-03-01T02:55:10.391Z,1.42
2024-03-01T02:57:56.068Z,1.75
2024-03-01T03:00:41.578Z,1.67
2024-03-01T03:03:26.839Z,1.05
2024-03-01T03:06:11.686Z,1.45
2024-03-01T03:08:56.703Z,1.70
2024-03-01T03:11:41.554Z,2.30
2024-03-01T03:14:26.533Z,1.33
2024-03-01T03:17:11.631Z,0.95
2024-03-01T03:19:56.839Z,1.40
2024-03-01T03:22:48.281Z,1.77
2024-03-01T03:25:33.391Z,1.10
2024-03-01T03:28:21.354Z,1.25
2024-03-01T03:31:06.847Z,1.20
2024-03-01T03:33:51.660Z,1.35
2024-03-01T03:36:36.550Z,1.17
2024-03-01T03:39:21.449Z,1.73
2024-03-01T03:42:06.502Z,1.30
2024-03-01T03:44:51.525Z,1.30
2024-03-01T03:47:39.588Z,1.40
2024-03-01T03:50:26.150Z,1.17
2024-03-01T03:53:11.427Z,1.52
2024-03-01T03:55:56.262Z,1.40
2024-03-01T03:58:41.086Z,1.05
2024-03-01T04:01:26.141Z,1.20
2024-03-01T04:04:11.092Z,1.48
2024-03-01T04:06:56.114Z,0.90
2024-03-01T04:09:41.247Z,1.20
2024-03-01T04:12:26.002Z,1.10
2024-03-01T04:15:10.970Z,1.33
2024-03-01T04:17:55.943Z,1.00
2024-03-01T04:20:42.000Z,1.17
2024-03-01T04:23:27.757Z,1.50
2024-03-01T04:26:12.629Z,1.50
2024-03-01T04:28:57.537Z,1.13
2024-03-01T04:31:44.625Z,1.35
2024-03-01T04:34:29.732Z,1.48
2024-03-01T04:37:15.205Z,1.33
2024-03-01T04:40:00.014Z,1.42
2024-03-01T04:42:45.009Z,1.70
2024-03-01T04:45:29.850Z,1.73
2024-03-01T04:48:14.658Z,2.03
2024-03-01T04:50:59.693Z,1.50
2024-03-01T04:53:45.645Z,1.77
2024-03-01T04:56:30.782Z,1.13
2024-03-01T04:59:16.689Z,2.03
2024-03-01T05:02:02.287Z,1.80
2024-03-01T05:04:47.662Z,1.35
2024-03-01T05:07:32.622Z,1.80
2024-03-01T05:10:23.860Z,1.83
2024-03-01T05:13:09.271Z,1.33
2024-03-01T05:15:54.487Z,1.92
2024-03-01T05:18:45.879Z,1.58
2024-03-01T05:21:31.122Z,1.45
2024-03-01T05:24:15.951Z,1.63
2024-03-01T05:27:01.131Z,1.25
2024-03-01T05:29:46.272Z,1.80
2024-03-01T05:32:31.248Z,1.75
2024-03-01T05:35:16.766Z,1.73
2024-03-01T05:38:01.770Z,1.40
2024-03-01T05:40:52.387Z,1.95
2024-03-01T05:43:38.193Z,2.17
2024-03-01T05:46:25.601Z,2.13
2024-03-01T05:49:11.055Z,2.65
2024-03-01T05:51:56.185Z,2.20
2024-03-01T05:54:41.141Z,2.58
2024-03-01T05:57:30.194Z,1.88
2024-03-01T06:00:26.446Z,1.93
2024-03-01T06:03:12.181Z,1.98
2024-03-01T06:05:57.527Z,1.98
2024-03-01T06:08:42.808Z,1.88
2024-03-01T06:11:28.024Z,2.35
2024-03-01T06:14:14.219Z,2.72
2024-03-01T06:16:59.488Z,2.63
2024-03-01T06:19:44.462Z,2.17
2024-03-01T06:22:30.736Z,2.55
2024-03-01T06:25:15.933Z,3.45
2024-03-01T06:28:00.865Z,2.20
2024-03-01T06:30:46.391Z,2.88
2024-03-01T06:33:31.251Z,2.72
2024-03-01T06:36:16.141Z,2.67
2024-03-01T06:39:01.430Z,3.33
2024-03-01T06:41:46.427Z,2.78
2024-03-01T06:44:31.325Z,2.58
2024-03-01T06:47:20.170Z,2.05
2024-03-01T06:50:10.122Z,2.13
2024-03-01T06:52:55.224Z,2.95
2024-03-01T06:55:40.664Z,2.22
2024-03-01T06:58:25.885Z,2.85
2024-03-01T07:01:12.106Z,1.88
2024-03-01T07:03:57.413Z,2.67
2024-03-01T07:06:42.360Z,2.72
2024-03-01T07:09:27.378Z,2.85
2024-03-01T07:12:12.208Z,2.72
2024-03-01T07:14:57.058Z,2.60
2024-03-01T07:17:42.220Z,2.63
2024-03-01T07:20:27.205Z,2.45
2024-03-01T07:23:12.104Z,2.35
2024-03-01T07:25:57.321Z,1.35
2024-03-01T07:28:42.170Z,1.55
2024-03-01T07:31:27.097Z,1.70
2024-03-01T07:34:11.915Z,1.30
2024-03-01T07:36:56.764Z,1.48
2024-03-01T07:39:41.647Z,1.55
2024-03-01T07:42:26.664Z,1.35
2024-03-01T07:45:11.782Z,1.25
2024-03-01T07:47:56.687Z,1.58
2024-03-01T07:50:41.799Z,0.83
2024-03-01T07:53:26.680Z,1.05
2024-03-01T07:56:11.748Z,1.10
2024-03-01T07:59:03.733Z,1.17
2024-03-01T08:01:48.895Z,0.93
2024-03-01T08:04:35.703Z,0.95
2024-03-01T08:07:20.972Z,0.95
2024-03-01T08:10:08.973Z,0.90
2024-03-01T08:12:53.911Z,1.40
2024-03-01T08:15:39.531Z,1.55
2024-03-01T08:18:25.948Z,1.10
2024-03-01T08:21:14.941Z,1.45
2024-03-01T08:24:01.581Z,2.10
2024-03-01T08:26:46.400Z,1.50
2024-03-01T08:29:32.515Z,1.88
2024-03-01T08:32:20.736Z,1.92
2024-03-01T08:35:05.784Z,2.53
2024-03-01T08:37:50.770Z,1.85
2024-03-01T08:40:52.153Z,1.98
2024-03-01T08:43:37.910Z,1.42
2024-03-01T08:46:32.665Z,2.35
2024-03-01T08:49:33.157Z,2.38
2024-03-01T08:52:24.208Z,3.15
2024-03-01T08:55:18.400Z,2.22
2024-03-01T08:58:04.028Z,2.22
2024-03-01T09:00:49.986Z,2.50
2024-03-01T09:03:36.776Z,2.03
2024-03-01T09:06:21.550Z,2.15
2024-03-01T09:09:06.858Z,2.15
2024-03-01T09:11:53.483Z,1.75
2024-03-01T09:14:38.493Z,2.05
2024-03-01T09:17:23.981Z,1.38
2024-03-01T09:20:27.937Z,1.98
2024-03-01T09:23:13.466Z,1.75
2024-03-01T09:26:05.475Z,1.38
2024-03-01T09:28:50.418Z,1.70
2024-03-01T09:31:35.666Z,1.33
2024-03-01T09:34:20.959Z,1.35
2024-03-01T09:37:09.848Z,1.08
2024-03-01T09:39:55.885Z,1.13
2024-03-01T09:42:54.695Z,1.17
2024-03-01T09:45:52.213Z,1.73
2024-03-01T09:48:39.721Z,1.33
2024-03-01T09:51:28.405Z,1.15
2024-03-01T09:54:16.724Z,1.17
2024-03-01T09:57:20.603Z,0.75
2024-03-01T10:00:07.240Z,0.90
2024-03-01T10:03:12.434Z,0.80
2024-03-01T10:06:12.676Z,0.77
2024-03-01T10:09:13.430Z,1.25
2024-03-01T10:12:14.012Z,1.00
2024-03-01T10:14:59.521Z,1.33
2024-03-01T10:17:51.170Z,1.15
2024-03-01T10:20:46.270Z,1.02
2024-03-01T10:23:38.090Z,0.93
2024-03-01T10:26:28.664Z,1.25
2024-03-01T10:29:25.344Z,1.13
2024-03-01T10:32:14.472Z,0.90
2024-03-01T10:35:06.906Z,1.83
2024-03-01T10:37:52.605Z,1.65
2024-03-01T10:40:45.758Z,1.23
2024-03-01T10:43:43.724Z,1.70
2024-03-01T10:46:44.418Z,1.33
2024-03-01T10:49:35.996Z,1.85
2024-03-01T10:52:25.296Z,1.25
2024-03-01T10:55:22.531Z,1.67
2024-03-01T10:58:22.516Z,1.73
2024-03-01T11:01:19.497Z,1.42
2024-03-01T11:04:07.672Z,1.27
2024-03-01T11:07:02.312Z,0.93
2024-03-01T11:10:06.208Z,1.50
2024-03-01T11:12:58.103Z,1.38
2024-03-01T11:15:44.020Z,1.45
2024-03-01T11:18:33.608Z,0.98
2024-03-01T11:21:21.741Z,1.77
2024-03-01T11:24:11.221Z,1.23
2024-03-01T11:26:56.511Z,1.65
2024-03-01T11:29:44.764Z,1.95
2024-03-01T11:32:31.897Z,1.27
2024-03-01T11:35:26.570Z,1.20
2024-03-01T11:38:20.991Z,1.50
2024-03-01T11:41:07.143Z,1.15
2024-03-01T11:44:13.563Z,1.17
2024-03-01T11:47:14.216Z,0.90
2024-03-01T11:50:02.842Z,0.70
2024-03-01T11:53:08.396Z,1.10
2024-03-01T11:56:12.287Z,0.68
2024-03-01T11:59:10.631Z,0.60
2024-03-01T12:01:55.848Z,0.70
2024-03-01T12:05:06.564Z,0.73
2024-03-01T12:07:54.819Z,0.80
2024-03-01T12:11:00.769Z,1.15
2024-03-01T12:13:48.802Z,0.70
2024-03-01T12:16:38.793Z,0.95
2024-03-01T12:19:43.494Z,0.95
2024-03-01T12:22:45.670Z,0.90
2024-03-01T12:25:31.628Z,1.15
2024-03-01T12:28:19.434Z,0.82
2024-03-01T12:31:04.889Z,1.40
2024-03-01T12:34:03.669Z,1.65
2024-03-01T12:36:59.332Z,1.20
2024-03-01T12:39:45.995Z,1.08
2024-03-01T12:42:30.856Z,1.40
2024-03-01T12:45:16.873Z,1.33
2024-03-01T12:48:04.256Z,1.05
2024-03-01T12:51:04.778Z,1.17
2024-03-01T12:54:08.748Z,1.23
2024-03-01T12:56:59.075Z,1.83
2024-03-01T13:02:42.169Z,2.17
2024-03-01T13:05:27.510Z,1.10
2024-03-01T13:08:20.714Z,1.20
2024-03-01T13:11:07.398Z,1.83
2024-03-01T13:13:59.226Z,1.40
2024-03-01T13:16:44.228Z,1.13
2024-03-01T13:19:35.502Z,1.65
2024-03-01T13:22:22.000Z,1.25
2024-03-01T13:25:16.939Z,1.50
2024-03-01T13:28:10.261Z,1.08
2024-03-01T13:31:01.138Z,1.25
2024-03-01T13:33:49.510Z,1.30
2024-03-01T13:36:36.716Z,1.60
2024-03-01T13:39:27.027Z,1.55
2024-03-01T13:45:15.758Z,1.70
2024-03-01T13:48:13.253Z,1.83
2024-03-01T13:50:58.455Z,1.42
2024-03-01T13:53:47.556Z,1.42
2024-03-01T13:56:34.819Z,1.30
2024-03-01T13:59:20.608Z,1.50
2024-03-01T14:02:07.040Z,1.33
2024-03-01T14:04:59.247Z,1.38
2024-03-01T14:07:48.137Z,1.50
2024-03-01T14:10:33.246Z,1.97
2024-03-01T14:13:23.302Z,2.00
2024-03-01T14:16:09.092Z,1.63
2024-03-01T14:18:55.021Z,1.60
2024-03-01T14:21:40.218Z,1.67
2024-03-01T14:24:25.135Z,1.58
2024-03-01T14:27:10.050Z,2.08
2024-03-01T14:29:55.899Z,1.88
2024-03-01T14:32:40.967Z,1.75
2024-03-01T14:35:26.082Z,2.03
2024-03-01T14:38:12.557Z,1.48
2024-03-01T14:40:58.112Z,1.70
2024-03-01T14:43:47.320Z,2.00
2024-03-01T14:46:38.707Z,1.90
2024-03-01T14:49:27.246Z,1.25
2024-03-01T14:52:12.137Z,1.33
2024-03-01T14:54:57.564Z,1.50
2024-03-01T14:57:42.407Z,1.40
2024-03-01T15:00:28.781Z,1.55
2024-03-01T15:03:14.052Z,1.50
2024-03-01T15:05:59.778Z,1.80
2024-03-01T15:08:45.071Z,1.35
2024-03-01T15:11:30.168Z,1.65
2024-03-01T15:14:15.998Z,1.38
2024-03-01T15:17:10.650Z,1.75
2024-03-01T15:19:55.785Z,1.80
2024-03-01T15:22:52.305Z,1.95
2024-03-01T15:25:37.217Z,1.67
2024-03-01T15:28:22.099Z,2.08
2024-03-01T15:31:07.492Z,1.33
2024-03-01T15:33:52.464Z,1.35
2024-03-01T15:36:37.557Z,1.00
2024-03-01T15:39:23.597Z,1.27
2024-03-01T15:42:08.785Z,1.05
2024-03-01T15:44:53.786Z,0.65
2024-03-01T15:47:38.670Z,0.90
2024-03-01T15:50:23.401Z,1.40
2024-03-01T15:53:10.452Z,1.05
2024-03-01T15:55:58.872Z,1.23
2024-03-01T15:58:44.303Z,1.20
2024-03-01T16:01:29.611Z,1.10
2024-03-01T16:04:15.737Z,1.25
2024-03-01T16:07:08.522Z,1.20
2024-03-01T16:09:54.795Z,1.08
2024-03-01T16:12:49.339Z,1.33
2024-03-01T16:15:34.451Z,1.20
2024-03-01T16:18:19.333Z,1.58
2024-03-01T16:21:05.544Z,0.75
2024-03-01T16:23:51.612Z,1.40
2024-03-01T16:26:36.866Z,1.30
2024-03-01T16:29:22.093Z,1.48
2024-03-01T16:32:10.527Z,1.65
2024-03-01T16:34:55.557Z,2.92
2024-03-01T16:37:40.421Z,2.50
2024-03-01T16:40:25.845Z,2.30
2024-03-01T16:43:35.432Z,2.58
2024-03-01T16:46:27.939Z,2.10
2024-03-01T16:49:33.404Z,2.20
2024-03-01T16:52:20.572Z,1.90
2024-03-01T16:55:07.570Z,0.98
2024-03-01T16:57:52.930Z,1.83
2024-03-01T17:00:38.419Z,1.27
2024-03-01T17:03:33.750Z,1.10
2024-03-01T17:06:19.578Z,1.67
2024-03-01T17:09:10.603Z,1.52
2024-03-01T17:11:56.572Z,2.30
2024-03-01T17:14:43.725Z,1.92
2024-03-01T17:17:31.287Z,2.53
2024-03-01T17:20:19.885Z,2.25
2024-03-01T17:23:04.955Z,2.30
2024-03-01T17:25:52.015Z,3.17
2024-03-01T17:28:37.049Z,3.00
2024-03-01T17:31:22.148Z,2.65
2024-03-01T17:34:06.842Z,3.05
2024-03-01T17:36:51.823Z,3.63
2024-03-01T17:39:36.784Z,3.35
2024-03-01T17:42:21.698Z,4.28
2024-03-01T17:45:06.630Z,4.55
2024-03-01T17:47:51.950Z,3.85
2024-03-01T17:50:36.869Z,3.05
2024-03-01T17:53:21.796Z,2.63
2024-03-01T17:56:08.180Z,2.60
2024-03-01T17:58:53.606Z,2.90
2024-03-01T18:01:38.603Z,3.38
2024-03-01T18:04:23.557Z,3.13
2024-03-01T18:07:08.356Z,3.03
2024-03-01T18:09:54.388Z,2.45
2024-03-01T18:12:39.283Z,2.55
2024-03-01T18:15:24.256Z,2.85
2024-03-01T18:18:09.215Z,3.00
2024-03-01T18:20:54.469Z,3.17
2024-03-01T18:23:39.662Z,3.15
2024-03-01T18:26:24.432Z,3.08
2024-03-01T18:29:09.891Z,6.22
2024-03-01T18:31:54.685Z,2.05
2024-03-01T18:34:39.849Z,2.08
2024-03-01T18:37:25.032Z,1.67
2024-03-01T18:40:10.991Z,1.63
2024-03-01T18:42:56.067Z,1.15
2024-03-01T18:45:41.379Z,1.30
2024-03-01T18:48:26.680Z,1.23
2024-03-01T18:51:11.820Z,0.98
2024-03-01T18:53:56.875Z,0.95
2024-03-01T18:56:41.925Z,1.20
2024-03-01T18:59:27.421Z,1.27
2024-03-01T19:02:16.014Z,1.13
2024-03-01T19:05:03.673Z,1.10
2024-03-01T19:07:48.942Z,1.33
2024-03-01T19:10:34.191Z,1.40
2024-03-01T19:13:19.326Z,1.30
2024-03-01T19:16:06.314Z,1.27
2024-03-01T19:18:51.363Z,1.23
2024-03-01T19:21:37.656Z,1.45
2024-03-01T19:24:23.824Z,1.00
2024-03-01T19:27:08.959Z,2.03
2024-03-01T19:29:54.126Z,5.28
2024-03-01T19:32:39.625Z,4.03
2024-03-01T19:35:24.872Z,5.63
2024-03-01T19:38:10.128Z,9.45
2024-03-01T19:40:56.211Z,7.35
2024-03-01T19:43:41.553Z,2.63
2024-03-01T19:46:26.640Z,1.77
2024-03-01T19:49:11.749Z,1.50
2024-03-01T19:51:57.006Z,1.40
2024-03-01T19:54:42.244Z,1.15
2024-03-01T19:57:27.543Z,1.80
2024-03-01T20:00:12.888Z,2.13
2024-03-01T20:02:58.130Z,1.63
2024-03-01T20:05:45.161Z,1.38
2024-03-01T20:08:30.400Z,1.02
2024-03-01T20:11:15.857Z,2.40
2024-03-01T20:14:00.646Z,2.90
2024-03-01T20:16:45.765Z,2.50
2024-03-01T20:19:30.746Z,2.03
2024-03-01T20:22:16.003Z,3.63
2024-03-01T20:25:01.006Z,17.63
2024-03-01T20:27:45.892Z,10.15
2024-03-01T20:30:40.631Z,9.53
2024-03-01T20:33:26.037Z,9.25
2024-03-01T20:36:10.869Z,6.30
2024-03-01T20:38:56.674Z,2.72
2024-03-01T20:41:41.760Z,2.17
2024-03-01T20:44:26.781Z,2.00
2024-03-01T20:47:13.098Z,2.72
2024-03-01T20:49:57.927Z,4.00
2024-03-01T20:52:42.963Z,4.80
2024-03-01T20:55:27.807Z,9.15
2024-03-01T20:58:13.973Z,8.68
2024-03-01T21:00:59.211Z,8.48
2024-03-01T21:03:44.109Z,7.72
2024-03-01T21:06:30.650Z,7.78
2024-03-01T21:09:20.705Z,6.50
2024-03-01T21:12:08.993Z,18.45
2024-03-01T21:14:53.915Z,19.17
2024-03-01T21:17:39.226Z,15.25
2024-03-01T21:20:24.335Z,11.82
2024-03-01T21:23:09.654Z,8.25
2024-03-01T21:25:54.830Z,6.90
2024-03-01T21:28:39.721Z,7.47
2024-03-01T21:31:24.594Z,5.00
2024-03-01T21:34:09.591Z,4.78
2024-03-01T21:36:56.093Z,4.38
2024-03-01T21:39:42.965Z,4.30
2024-03-01T21:42:30.020Z,6.15
2024-03-01T21:45:15.044Z,7.20
2024-03-01T21:47:59.925Z,10.23
2024-03-01T21:50:44.983Z,8.00
2024-03-01T21:53:29.957Z,6.93
2024-03-01T21:56:15.478Z,6.45
2024-03-01T21:59:00.316Z,6.05
2024-03-01T22:01:45.319Z,9.70
2024-03-01T22:04:30.188Z,10.48
2024-03-01T22:07:15.149Z,9.98
2024-03-01T22:10:00.886Z,7.93
2024-03-01T22:12:45.992Z,6.28
2024-03-01T22:15:30.928Z,8.25
2024-03-01T22:18:15.824Z,7.68
2024-03-01T22:21:00.663Z,5.85
2024-03-01T22:23:46.012Z,5.97
2024-03-01T22:26:30.953Z,5.82
2024-03-01T22:29:15.937Z,5.57
2024-03-01T22:32:00.875Z,5.68
2024-03-01T22:34:45.857Z,6.88
2024-03-01T22:37:31.000Z,7.25
2024-03-01T22:40:16.093Z,6.15
2024-03-01T22:43:00.966Z,5.95
2024-03-01T22:45:46.009Z,7.03
2024-03-01T22:48:32.033Z,4.68
2024-03-01T22:51:17.762Z,3.60
2024-03-01T22:54:03.597Z,2.47
2024-03-01T22:56:48.410Z,2.50
2024-03-01T22:59:52.096Z,2.28
2024-03-01T23:02:37.531Z,1.63
2024-03-01T23:05:41.435Z,1.40
2024-03-01T23:08:32.529Z,1.50
2024-03-01T23:11:27.952Z,2.00
2024-03-01T23:14:30.362Z,1.40
2024-03-01T23:17:15.814Z,2.08
2024-03-01T23:20:01.640Z,1.73
2024-03-01T23:22:50.785Z,1.42
2024-03-01T23:25:36.186Z,1.90
2024-03-01T23:28:21.419Z,1.77
2024-03-01T23:31:06.884Z,1.30
2024-03-01T23:33:52.133Z,2.22
2024-03-01T23:36:37.071Z,18.27
2024-03-01T23:39:22.049Z,14.25
2024-03-01T23:42:06.696Z,4.78
2024-03-01T23:44:51.568Z,2.83
2024-03-01T23:47:36.440Z,12.13
2024-03-01T23:50:21.415Z,6.85
2024-03-01T23:53:06.837Z,4.65
2024-03-01T23:55:53.210Z,2.42
2024-03-01T23:58:41.428Z,2.10
